createdAt,value
2023-04-18T00:00:16.385Z,4.50
2023-04-18T00:01:18.686Z,4.57
2023-04-18T00:02:20.545Z,4.59
2023-04-18T00:03:22.421Z,4.58
2023-04-18T00:04:24.166Z,4.57
2023-04-18T00:05:26.229Z,4.36
2023-04-18T00:06:29.998Z,4.41
2023-04-18T00:07:31.625Z,4.43
2023-04-18T00:08:36.589Z,4.45
2023-04-18T00:09:38.318Z,4.45
2023-04-18T00:10:40.114Z,4.43
2023-04-18T00:11:41.636Z,4.28
2023-04-18T00:12:43.266Z,4.32
2023-04-18T00:13:47.297Z,4.32
2023-04-18T00:14:50.345Z,4.34
2023-04-18T00:15:54.225Z,4.32
2023-04-18T00:16:55.981Z,4.34
2023-04-18T00:17:57.617Z,4.24
2023-04-18T00:18:59.420Z,4.32
2023-04-18T00:20:07.124Z,4.33
2023-04-18T00:21:08.863Z,4.32
2023-04-18T00:22:13.992Z,4.18
2023-04-18T00:23:16.411Z,4.26
2023-04-18T00:24:17.993Z,4.30
2023-04-18T00:25:19.703Z,4.32
2023-04-18T00:26:21.254Z,4.33
2023-04-18T00:27:23.685Z,4.35
2023-04-18T00:28:28.546Z,4.32
2023-04-18T00:29:31.738Z,4.32
2023-04-18T00:30:33.611Z,4.32
2023-04-18T00:31:37.430Z,4.33
2023-04-18T00:32:39.165Z,4.30
2023-04-18T00:33:43.326Z,4.29
2023-04-18T00:34:45.293Z,4.17
2023-04-18T00:35:46.998Z,4.23
2023-04-18T00:36:49.627Z,4.21
2023-04-18T00:37:51.922Z,4.05
2023-04-18T00:38:53.705Z,4.13
2023-04-18T00:39:57.549Z,4.13
2023-04-18T00:41:01.288Z,4.00
2023-04-18T00:42:03.959Z,4.05
2023-04-18T00:43:07.816Z,4.06
2023-04-18T00:44:09.510Z,4.06
2023-04-18T00:45:11.408Z,3.94
2023-04-18T00:46:13.120Z,3.89
2023-04-18T00:47:17.793Z,3.72
2023-04-18T00:48:20.699Z,3.79
2023-04-18T00:49:24.011Z,3.82
2023-04-18T00:50:26.300Z,3.82
2023-04-18T00:51:28.320Z,3.82
2023-04-18T00:52:30.082Z,3.84
2023-04-18T00:53:31.920Z,3.82
2023-04-18T00:54:35.764Z,3.66
2023-04-18T00:55:38.418Z,3.73
2023-04-18T00:56:42.940Z,3.72
2023-04-18T00:57:44.576Z,3.65
2023-04-18T00:58:46.391Z,3.71
2023-04-18T00:59:50.265Z,3.68
2023-04-18T01:00:54.683Z,3.74
2023-04-18T01:01:56.421Z,3.74
2023-04-18T01:03:00.931Z,3.73
2023-04-18T01:04:02.796Z,3.62
2023-04-18T01:05:04.797Z,3.58
2023-04-18T01:06:06.522Z,3.61
2023-04-18T01:07:08.510Z,3.51
2023-04-18T01:08:11.098Z,3.59
2023-04-18T01:09:14.002Z,3.61
2023-04-18T01:10:15.981Z,3.58
2023-04-18T01:11:17.670Z,3.58
2023-04-18T01:12:26.417Z,3.54
2023-04-18T01:13:29.345Z,3.55
2023-04-18T01:14:31.039Z,3.58
2023-04-18T01:15:32.595Z,3.48
2023-04-18T01:16:34.852Z,3.55
2023-04-18T01:17:36.529Z,3.57
2023-04-18T01:18:40.172Z,3.48
2023-04-18T01:19:42.652Z,3.65
2023-04-18T01:20:46.753Z,3.60
2023-04-18T01:21:53.441Z,3.68
2023-04-18T01:22:57.389Z,3.74
2023-04-18T01:24:08.284Z,3.79
2023-04-18T01:25:11.987Z,3.85
2023-04-18T01:26:13.796Z,3.90
2023-04-18T01:27:15.533Z,3.93
2023-04-18T01:28:19.863Z,3.96
2023-04-18T01:29:25.360Z,3.98
2023-04-18T01:30:27.018Z,4.02
2023-04-18T01:31:28.593Z,3.92
2023-04-18T01:32:31.079Z,4.02
2023-04-18T01:33:32.594Z,3.97
2023-04-18T01:34:34.342Z,4.07
2023-04-18T01:35:36.072Z,4.15
2023-04-18T01:36:37.919Z,4.02
2023-04-18T01:37:39.589Z,4.10
2023-04-18T01:38:42.010Z,4.06
2023-04-18T01:39:47.589Z,4.06
2023-04-18T01:40:50.449Z,4.04
2023-04-18T01:41:52.113Z,4.05
2023-04-18T01:42:53.733Z,4.05
2023-04-18T01:43:55.419Z,3.89
2023-04-18T01:44:59.454Z,4.01
2023-04-18T01:46:04.335Z,4.03
2023-04-18T01:47:05.944Z,4.03
2023-04-18T01:48:07.650Z,3.90
2023-04-18T01:49:11.442Z,3.99
2023-04-18T01:50:13.368Z,4.03
2023-04-18T01:51:15.025Z,3.88
2023-04-18T01:52:17.377Z,3.98
2023-04-18T01:53:19.265Z,4.03
2023-04-18T01:54:21.754Z,3.82
2023-04-18T01:55:23.235Z,3.80
2023-04-18T01:56:24.957Z,3.93
2023-04-18T01:57:28.639Z,3.91
2023-04-18T01:58:32.872Z,3.88
2023-04-18T01:59:34.580Z,3.93
2023-04-18T02:00:36.888Z,3.91
2023-04-18T02:01:40.564Z,3.84
2023-04-18T02:02:42.762Z,3.82
2023-04-18T02:03:44.820Z,3.80
2023-04-18T02:04:47.820Z,3.75
2023-04-18T02:05:49.390Z,3.55
2023-04-18T02:06:50.957Z,3.62
2023-04-18T02:07:52.974Z,3.65
2023-04-18T02:08:54.591Z,3.69
2023-04-18T02:09:59.731Z,3.73
2023-04-18T02:11:01.798Z,3.57
2023-04-18T02:12:03.539Z,3.65
2023-04-18T02:13:06.680Z,3.50
2023-04-18T02:14:08.375Z,3.61
2023-04-18T02:15:10.614Z,3.53
2023-04-18T02:16:13.272Z,3.63
2023-04-18T02:17:14.940Z,3.67
2023-04-18T02:18:17.473Z,3.57
2023-04-18T02:19:19.117Z,3.65
2023-04-18T02:20:20.782Z,3.57
2023-04-18T02:21:22.715Z,3.70
2023-04-18T02:22:24.346Z,3.77
2023-04-18T02:23:25.921Z,3.82
2023-04-18T02:24:30.391Z,3.87
2023-04-18T02:25:31.994Z,3.89
2023-04-18T02:26:35.806Z,3.93
2023-04-18T02:27:38.427Z,3.95
2023-04-18T02:28:40.067Z,3.95
2023-04-18T02:29:41.712Z,3.90
2023-04-18T02:30:43.509Z,3.92
2023-04-18T02:31:47.284Z,3.98
2023-04-18T02:32:53.962Z,3.98
2023-04-18T02:33:58.968Z,4.03
2023-04-18T02:35:02.852Z,4.07
2023-04-18T02:36:04.939Z,4.11
2023-04-18T02:37:06.578Z,4.16
2023-04-18T02:38:08.683Z,4.19
2023-04-18T02:39:10.425Z,4.24
2023-04-18T02:40:12.792Z,4.12
2023-04-18T02:41:17.453Z,4.25
2023-04-18T02:42:19.156Z,4.28
2023-04-18T02:43:20.752Z,4.09
2023-04-18T02:44:22.309Z,4.23
2023-04-18T02:45:23.948Z,4.26
2023-04-18T02:46:25.834Z,4.19
2023-04-18T02:47:27.918Z,4.30
2023-04-18T02:48:29.654Z,4.21
2023-04-18T02:49:32.249Z,4.34
2023-04-18T02:50:35.481Z,4.37
2023-04-18T02:51:37.205Z,4.39
2023-04-18T02:52:39.206Z,4.36
2023-04-18T02:53:41.439Z,4.35
2023-04-18T02:54:43.256Z,4.33
2023-04-18T02:55:52.355Z,4.31
2023-04-18T02:56:56.907Z,4.27
2023-04-18T02:58:13.832Z,4.24
2023-04-18T02:59:33.839Z,4.23
2023-04-18T03:00:47.009Z,4.23
2023-04-18T03:02:16.697Z,4.20
2023-04-18T03:03:25.105Z,4.22
2023-04-18T03:04:38.397Z,4.19
2023-04-18T03:05:42.804Z,4.18
2023-04-18T03:06:44.393Z,4.03
2023-04-18T03:07:46.299Z,4.15
2023-04-18T03:08:47.953Z,4.03
2023-04-18T03:09:49.821Z,4.18
2023-04-18T03:10:56.857Z,4.26
2023-04-18T03:12:02.080Z,4.31
2023-04-18T03:13:05.405Z,4.30
2023-04-18T03:14:08.067Z,4.32
2023-04-18T03:15:20.666Z,4.34
2023-04-18T03:16:22.795Z,4.36
2023-04-18T03:17:24.847Z,4.38
2023-04-18T03:18:29.695Z,4.41
2023-04-18T03:19:36.427Z,4.44
2023-04-18T03:20:42.747Z,4.49
2023-04-18T03:21:44.209Z,4.38
2023-04-18T03:22:46.726Z,4.37
2023-04-18T03:23:53.063Z,4.51
2023-04-18T03:24:56.039Z,4.52
2023-04-18T03:26:13.749Z,4.54
2023-04-18T03:27:19.738Z,4.58
2023-04-18T03:28:22.340Z,4.59
2023-04-18T03:29:24.647Z,4.63
2023-04-18T03:30:26.551Z,4.48
2023-04-18T03:31:30.818Z,4.57
2023-04-18T03:32:34.020Z,4.56
2023-04-18T03:33:36.244Z,4.57
2023-04-18T03:34:45.641Z,4.54
2023-04-18T03:35:49.647Z,4.55
2023-04-18T03:36:56.481Z,4.53
2023-04-18T03:37:58.475Z,4.55
2023-04-18T03:39:05.161Z,4.56
2023-04-18T03:40:07.286Z,4.59
2023-04-18T03:41:08.988Z,4.59
2023-04-18T03:42:14.492Z,4.59
2023-04-18T03:43:19.205Z,4.60
2023-04-18T03:44:20.942Z,4.63
2023-04-18T03:45:22.480Z,4.49
2023-04-18T03:46:25.304Z,4.61
2023-04-18T03:47:33.240Z,4.68
2023-04-18T03:48:37.317Z,4.67
2023-04-18T03:49:43.625Z,4.67
2023-04-18T03:50:45.382Z,4.69
2023-04-18T03:51:49.959Z,4.50
2023-04-18T03:52:55.074Z,4.58
2023-04-18T03:53:56.666Z,4.60
2023-04-18T03:54:58.296Z,4.57
2023-04-18T03:56:05.660Z,4.61
2023-04-18T03:57:27.117Z,4.57
2023-04-18T03:58:28.875Z,4.59
2023-04-18T03:59:32.912Z,4.45
2023-04-18T04:00:35.501Z,4.55
2023-04-18T04:01:42.584Z,4.59
2023-04-18T04:02:46.898Z,4.62
2023-04-18T04:03:54.573Z,4.63
2023-04-18T04:04:56.672Z,4.64
2023-04-18T04:05:58.909Z,4.62
2023-04-18T04:07:00.974Z,4.63
2023-04-18T04:08:09.832Z,4.68
2023-04-18T04:09:13.829Z,4.69
2023-04-18T04:10:15.613Z,4.70
2023-04-18T04:11:17.574Z,4.72
2023-04-18T04:12:19.301Z,4.76
2023-04-18T04:13:20.868Z,4.71
2023-04-18T04:14:24.654Z,4.72
2023-04-18T04:15:29.145Z,4.74
2023-04-18T04:16:37.201Z,4.76
2023-04-18T04:17:39.380Z,4.77
2023-04-18T04:18:40.982Z,4.61
2023-04-18T04:19:42.618Z,4.70
2023-04-18T04:20:48.031Z,4.72
2023-04-18T04:22:02.476Z,4.72
2023-04-18T04:23:04.198Z,4.77
2023-04-18T04:24:07.544Z,4.77
2023-04-18T04:25:13.874Z,4.80
2023-04-18T04:26:23.346Z,4.80
2023-04-18T04:27:34.004Z,4.77
2023-04-18T04:28:36.126Z,4.81
2023-04-18T04:29:39.962Z,4.83
2023-04-18T04:31:28.219Z,4.72
2023-04-18T04:32:31.443Z,4.77
2023-04-18T04:33:35.683Z,4.76
2023-04-18T04:34:41.659Z,4.72
2023-04-18T04:35:49.839Z,4.71
2023-04-18T04:36:54.734Z,4.70
2023-04-18T04:37:58.880Z,4.74
2023-04-18T04:39:08.610Z,4.71
2023-04-18T04:40:25.003Z,4.69
2023-04-18T04:41:43.393Z,4.67
2023-04-18T04:42:47.215Z,4.64
2023-04-18T04:43:54.470Z,4.62
2023-04-18T04:45:01.669Z,4.62
2023-04-18T04:46:04.655Z,4.64
2023-04-18T04:47:06.403Z,4.64
2023-04-18T04:48:13.822Z,4.62
2023-04-18T04:49:16.480Z,4.63
2023-04-18T04:50:18.486Z,4.46
2023-04-18T04:51:20.101Z,4.61
2023-04-18T04:52:21.698Z,4.47
2023-04-18T04:53:25.647Z,4.61
2023-04-18T04:54:27.753Z,4.65
2023-04-18T04:55:29.769Z,4.67
2023-04-18T04:56:32.411Z,4.71
2023-04-18T04:57:59.857Z,4.69
2023-04-18T04:59:24.355Z,4.67
2023-04-18T05:00:25.998Z,4.54
2023-04-18T05:01:27.680Z,4.70
2023-04-18T05:02:30.085Z,4.70
2023-04-18T05:03:32.022Z,4.77
2023-04-18T05:04:33.993Z,4.77
2023-04-18T05:05:35.897Z,4.77
2023-04-18T05:06:39.650Z,4.65
2023-04-18T05:07:41.948Z,4.82
2023-04-18T05:08:43.489Z,4.75
2023-04-18T05:09:45.268Z,4.88
2023-04-18T05:10:47.663Z,4.82
2023-04-18T05:11:51.911Z,4.93
2023-04-18T05:12:56.392Z,4.99
2023-04-18T05:13:58.020Z,4.97
2023-04-18T05:14:59.632Z,4.84
2023-04-18T05:16:01.420Z,5.00
2023-04-18T05:17:04.147Z,4.89
2023-04-18T05:18:06.229Z,5.06
2023-04-18T05:19:07.836Z,5.08
2023-04-18T05:20:10.194Z,5.10
2023-04-18T05:21:11.822Z,5.15
2023-04-18T05:22:13.452Z,5.17
2023-04-18T05:23:14.990Z,5.03
2023-04-18T05:24:19.016Z,5.15
2023-04-18T05:25:20.770Z,5.17
2023-04-18T05:26:22.524Z,5.03
2023-04-18T05:27:26.651Z,5.18
2023-04-18T05:28:30.647Z,5.23
2023-04-18T05:29:34.732Z,5.29
2023-04-18T05:30:36.477Z,5.35
2023-04-18T05:31:37.979Z,5.18
2023-04-18T05:32:39.614Z,5.32
2023-04-18T05:33:41.264Z,5.14
2023-04-18T05:34:43.014Z,5.29
2023-04-18T05:35:44.649Z,5.14
2023-04-18T05:36:47.799Z,5.25
2023-04-18T05:37:49.357Z,5.29
2023-04-18T05:38:51.679Z,5.32
2023-04-18T05:39:53.424Z,5.37
2023-04-18T05:40:55.839Z,5.25
2023-04-18T05:41:58.347Z,5.41
2023-04-18T05:43:00.903Z,5.46
2023-04-18T05:44:05.861Z,5.47
2023-04-18T05:45:08.349Z,5.50
2023-04-18T05:46:10.213Z,5.54
2023-04-18T05:47:11.866Z,5.52
2023-04-18T05:48:14.446Z,5.52
2023-04-18T05:49:16.205Z,5.53
2023-04-18T05:50:17.709Z,5.33
2023-04-18T05:51:19.426Z,5.47
2023-04-18T05:52:21.060Z,5.30
2023-04-18T05:53:22.702Z,5.42
2023-04-18T05:54:27.565Z,5.44
2023-04-18T05:55:29.272Z,5.47
2023-04-18T05:56:31.043Z,5.47
2023-04-18T05:57:32.561Z,5.32
2023-04-18T05:58:37.214Z,5.44
2023-04-18T05:59:38.860Z,5.42
2023-04-18T06:00:42.249Z,5.42
2023-04-18T06:01:44.292Z,5.44
2023-04-18T06:02:46.063Z,5.41
2023-04-18T06:03:48.117Z,5.44
2023-04-18T06:04:50.060Z,5.43
2023-04-18T06:05:54.668Z,5.47
2023-04-18T06:06:56.580Z,5.48
2023-04-18T06:07:58.413Z,5.52
2023-04-18T06:09:02.485Z,5.37
2023-04-18T06:10:07.737Z,5.53
2023-04-18T06:11:09.520Z,5.56
2023-04-18T06:12:13.197Z,5.41
2023-04-18T06:13:14.900Z,5.55
2023-04-18T06:14:20.980Z,5.40
2023-04-18T06:15:24.888Z,5.56
2023-04-18T06:16:26.720Z,5.61
2023-04-18T06:17:31.009Z,5.65
2023-04-18T06:18:36.943Z,5.68
2023-04-18T06:19:39.549Z,5.74
2023-04-18T06:20:45.326Z,5.78
2023-04-18T06:21:50.706Z,5.82
2023-04-18T06:22:54.647Z,5.86
2023-04-18T06:24:01.585Z,5.91
2023-04-18T06:25:03.532Z,5.91
2023-04-18T06:26:09.199Z,5.95
2023-04-18T06:27:20.479Z,5.97
2023-04-18T06:28:32.315Z,6.00
2023-04-18T06:29:35.545Z,6.02
2023-04-18T06:30:37.761Z,6.03
2023-04-18T06:31:39.366Z,6.05
2023-04-18T06:32:41.304Z,6.06
2023-04-18T06:33:44.795Z,6.09
2023-04-18T06:34:46.390Z,6.12
2023-04-18T06:35:48.077Z,6.17
2023-04-18T06:36:50.416Z,6.19
2023-04-18T06:37:52.365Z,6.22
2023-04-18T06:38:54.482Z,6.27
2023-04-18T06:39:56.196Z,6.29
2023-04-18T06:40:57.780Z,6.31
2023-04-18T06:41:59.448Z,6.34
2023-04-18T06:43:03.325Z,6.41
2023-04-18T06:44:07.305Z,6.41
2023-04-18T06:45:11.919Z,6.42
2023-04-18T06:46:13.891Z,6.48
2023-04-18T06:47:16.173Z,6.54
2023-04-18T06:48:17.784Z,6.52
2023-04-18T06:49:20.762Z,6.42
2023-04-18T06:50:26.259Z,6.54
2023-04-18T06:51:27.930Z,6.55
2023-04-18T06:52:29.485Z,6.47
2023-04-18T06:53:31.138Z,6.61
2023-04-18T06:54:32.909Z,6.64
2023-04-18T06:55:34.579Z,6.67
2023-04-18T06:56:38.348Z,6.71
2023-04-18T06:57:41.338Z,6.75
2023-04-18T06:58:45.728Z,6.80
2023-04-18T06:59:47.401Z,6.84
2023-04-18T07:00:52.044Z,6.72
2023-04-18T07:01:53.906Z,6.86
2023-04-18T07:02:55.538Z,6.78
2023-04-18T07:03:57.223Z,6.92
2023-04-18T07:04:58.861Z,6.79
2023-04-18T07:06:00.765Z,6.94
2023-04-18T07:07:03.769Z,6.98
2023-04-18T07:08:08.001Z,7.06
2023-04-18T07:09:09.626Z,7.06
2023-04-18T07:10:13.653Z,7.06
2023-04-18T07:11:18.623Z,7.08
2023-04-18T07:12:20.808Z,7.12
2023-04-18T07:13:22.428Z,7.16
2023-04-18T07:14:24.749Z,7.14
2023-04-18T07:15:26.444Z,7.03
2023-04-18T07:16:28.012Z,6.91
2023-04-18T07:17:29.901Z,7.06
2023-04-18T07:18:37.859Z,7.11
2023-04-18T07:19:41.110Z,7.14
2023-04-18T07:20:42.799Z,7.16
2023-04-18T07:21:45.933Z,7.18
2023-04-18T07:22:48.164Z,7.22
2023-04-18T07:23:52.248Z,7.23
2023-04-18T07:24:56.138Z,7.31
2023-04-18T07:25:59.523Z,7.34
2023-04-18T07:27:02.593Z,7.37
2023-04-18T07:28:04.399Z,7.45
2023-04-18T07:29:05.904Z,7.32
2023-04-18T07:30:08.186Z,7.50
2023-04-18T07:31:11.602Z,7.53
2023-04-18T07:32:13.461Z,7.52
2023-04-18T07:33:15.015Z,7.37
2023-04-18T07:34:17.331Z,7.56
2023-04-18T07:35:18.965Z,7.65
2023-04-18T07:36:21.536Z,7.56
2023-04-18T07:37:26.168Z,7.71
2023-04-18T07:38:30.348Z,7.79
2023-04-18T07:39:35.804Z,7.87
2023-04-18T07:40:37.630Z,7.84
2023-04-18T07:41:39.244Z,7.73
2023-04-18T07:42:40.933Z,7.88
2023-04-18T07:43:44.727Z,7.90
2023-04-18T07:44:47.002Z,7.93
2023-04-18T07:45:52.229Z,7.96
2023-04-18T07:46:53.895Z,8.02
2023-04-18T07:47:55.637Z,8.01
2023-04-18T07:48:57.296Z,8.04
2023-04-18T07:49:58.931Z,8.08
2023-04-18T07:51:02.910Z,7.99
2023-04-18T07:52:04.852Z,8.14
2023-04-18T07:53:08.206Z,8.23
2023-04-18T07:54:11.159Z,8.26
2023-04-18T07:55:13.043Z,8.29
2023-04-18T07:56:14.599Z,8.17
2023-04-18T07:57:16.335Z,8.33
2023-04-18T07:58:18.082Z,8.41
2023-04-18T07:59:22.492Z,8.43
2023-04-18T08:00:24.604Z,8.47
2023-04-18T08:01:27.280Z,8.52
2023-04-18T08:02:29.289Z,8.50
2023-04-18T08:03:31.145Z,8.54
2023-04-18T08:04:33.167Z,8.51
2023-04-18T08:05:34.968Z,8.54
2023-04-18T08:06:36.893Z,8.42
2023-04-18T08:07:38.687Z,8.56
2023-04-18T08:08:40.386Z,8.47
2023-04-18T08:09:42.024Z,8.65
2023-04-18T08:10:43.666Z,8.58
2023-04-18T08:11:45.270Z,8.76
2023-04-18T08:12:46.881Z,8.77
2023-04-18T08:13:53.112Z,8.58
2023-04-18T08:14:54.740Z,8.77
2023-04-18T08:15:56.396Z,8.88
2023-04-18T08:16:57.890Z,8.85
2023-04-18T08:18:00.374Z,9.04
2023-04-18T08:19:02.019Z,9.13
2023-04-18T08:20:07.223Z,9.15
2023-04-18T08:21:09.011Z,9.13
2023-04-18T08:22:10.885Z,9.07
2023-04-18T08:23:13.388Z,9.20
2023-04-18T08:24:15.185Z,9.29
2023-04-18T08:25:17.025Z,9.23
2023-04-18T08:26:19.664Z,9.36
2023-04-18T08:27:23.630Z,9.49
2023-04-18T08:28:25.719Z,9.55
2023-04-18T08:29:27.397Z,9.52
2023-04-18T08:30:31.697Z,9.59
2023-04-18T08:31:35.633Z,9.69
2023-04-18T08:32:37.424Z,9.72
2023-04-18T08:33:41.775Z,9.78
2023-04-18T08:34:46.890Z,9.83
2023-04-18T08:35:51.020Z,9.90
2023-04-18T08:36:52.594Z,10.01
2023-04-18T08:37:54.274Z,10.14
2023-04-18T08:38:59.252Z,10.26
2023-04-18T08:40:05.345Z,10.37
2023-04-18T08:41:08.516Z,10.49
2023-04-18T08:42:10.833Z,10.62
2023-04-18T08:43:16.638Z,10.72
2023-04-18T08:44:19.149Z,10.79
2023-04-18T08:45:20.983Z,10.89
2023-04-18T08:46:22.782Z,10.84
2023-04-18T08:47:28.397Z,11.02
2023-04-18T08:48:32.528Z,11.13
2023-04-18T08:49:34.122Z,11.25
2023-04-18T08:50:36.194Z,11.37
2023-04-18T08:51:39.950Z,11.49
2023-04-18T08:52:45.631Z,11.58
2023-04-18T08:53:50.630Z,11.73
2023-04-18T08:54:52.690Z,11.80
2023-04-18T08:55:57.932Z,11.83
2023-04-18T08:57:07.720Z,11.88
2023-04-18T08:58:12.442Z,11.98
2023-04-18T08:59:14.799Z,12.09
2023-04-18T09:00:18.055Z,12.13
2023-04-18T09:01:19.759Z,12.19
2023-04-18T09:02:23.321Z,12.25
2023-04-18T09:03:42.107Z,12.20
2023-04-18T09:04:45.898Z,12.38
2023-04-18T09:06:12.518Z,12.40
2023-04-18T09:07:20.503Z,12.54
2023-04-18T09:08:24.313Z,12.59
2023-04-18T09:09:27.537Z,12.61
2023-04-18T09:10:34.075Z,12.74
2023-04-18T09:11:35.725Z,12.82
2023-04-18T09:12:50.555Z,12.81
2023-04-18T09:13:53.370Z,12.91
2023-04-18T09:15:12.341Z,12.92
2023-04-18T09:16:16.903Z,12.89
2023-04-18T09:17:37.740Z,12.88
2023-04-18T09:18:42.412Z,12.89
2023-04-18T09:19:50.078Z,12.84
2023-04-18T09:20:51.840Z,12.76
2023-04-18T09:22:02.056Z,12.77
2023-04-18T09:23:11.678Z,12.64
2023-04-18T09:24:23.804Z,12.77
2023-04-18T09:25:40.746Z,12.81
2023-04-18T09:26:47.132Z,12.92
2023-04-18T09:27:48.718Z,12.95
2023-04-18T09:28:53.845Z,12.98
2023-04-18T09:29:57.821Z,12.97
2023-04-18T09:31:11.971Z,12.96
2023-04-18T09:32:39.949Z,12.91
2023-04-18T09:33:54.201Z,12.87
2023-04-18T09:35:04.946Z,12.89
2023-04-18T09:36:21.528Z,12.82
2023-04-18T09:37:26.461Z,12.85
2023-04-18T09:38:42.582Z,12.77
2023-04-18T09:39:45.840Z,12.75
2023-04-18T09:40:47.525Z,12.77
2023-04-18T09:41:58.590Z,12.63
2023-04-18T09:43:00.502Z,12.60
2023-04-18T09:44:14.338Z,12.54
2023-04-18T09:45:20.094Z,12.43
2023-04-18T09:46:22.642Z,12.37
2023-04-18T09:47:24.417Z,12.30
2023-04-18T09:48:28.399Z,12.06
2023-04-18T09:49:30.260Z,12.12
2023-04-18T09:50:33.016Z,12.10
2023-04-18T09:51:35.141Z,12.12
2023-04-18T09:52:41.415Z,12.13
2023-04-18T09:53:47.479Z,12.07
2023-04-18T09:54:55.735Z,12.07
2023-04-18T09:55:57.982Z,12.01
2023-04-18T09:57:02.777Z,12.12
2023-04-18T09:58:05.188Z,12.11
2023-04-18T09:59:09.034Z,12.15
2023-04-18T10:00:20.262Z,12.14
2023-04-18T10:01:23.204Z,12.14
2023-04-18T10:02:28.901Z,12.16
2023-04-18T10:03:38.030Z,12.12
2023-04-18T10:04:40.644Z,12.17
2023-04-18T10:05:42.939Z,12.17
2023-04-18T10:06:48.068Z,12.11
2023-04-18T10:07:50.872Z,12.05
2023-04-18T10:08:53.709Z,12.04
2023-04-18T10:09:57.814Z,12.03
2023-04-18T10:11:02.441Z,11.95
2023-04-18T10:12:06.488Z,11.94
2023-04-18T10:13:11.636Z,11.95
2023-04-18T10:14:18.787Z,11.91
2023-04-18T10:15:22.325Z,11.86
2023-04-18T10:16:24.279Z,11.85
2023-04-18T10:17:29.274Z,11.88
2023-04-18T10:18:31.329Z,11.77
2023-04-18T10:19:32.852Z,11.72
2023-04-18T10:20:35.501Z,11.87
2023-04-18T10:21:37.274Z,11.93
2023-04-18T10:22:38.914Z,11.93
2023-04-18T10:23:40.680Z,11.69
2023-04-18T10:24:45.590Z,11.84
2023-04-18T10:25:48.341Z,11.92
2023-04-18T10:26:52.121Z,11.92
2023-04-18T10:27:58.917Z,11.88
2023-04-18T10:29:03.951Z,11.94
2023-04-18T10:30:09.185Z,11.92
2023-04-18T10:31:11.773Z,11.81
2023-04-18T10:32:13.514Z,11.80
2023-04-18T10:33:32.276Z,11.64
2023-04-18T10:34:37.549Z,11.70
2023-04-18T10:36:11.553Z,11.56
2023-04-18T10:37:13.299Z,11.74
2023-04-18T10:38:17.986Z,11.80
2023-04-18T10:39:21.965Z,11.81
2023-04-18T10:40:34.332Z,11.82
2023-04-18T10:41:49.459Z,11.86
2023-04-18T10:42:52.106Z,11.90
2023-04-18T10:44:15.733Z,11.89
2023-04-18T10:45:22.612Z,11.97
2023-04-18T10:46:31.831Z,11.97
2023-04-18T10:47:34.675Z,11.95
2023-04-18T10:48:39.181Z,11.94
2023-04-18T10:49:55.900Z,11.88
2023-04-18T10:51:14.127Z,11.93
2023-04-18T10:52:15.985Z,12.01
2023-04-18T10:53:17.622Z,12.06
2023-04-18T10:54:43.564Z,11.97
2023-04-18T10:55:54.538Z,11.96
2023-04-18T10:56:58.815Z,12.04
2023-04-18T10:58:00.842Z,12.07
2023-04-18T10:59:03.669Z,12.12
2023-04-18T11:00:11.063Z,12.18
2023-04-18T11:01:22.308Z,12.21
2023-04-18T11:02:32.489Z,12.18
2023-04-18T11:03:34.837Z,12.21
2023-04-18T11:04:37.512Z,12.22
2023-04-18T11:05:39.353Z,12.26
2023-04-18T11:06:54.942Z,12.29
2023-04-18T11:07:56.752Z,12.37
2023-04-18T11:09:14.049Z,12.28
2023-04-18T11:10:26.408Z,12.43
2023-04-18T11:11:28.211Z,12.34
2023-04-18T11:12:35.528Z,12.39
2023-04-18T11:13:52.898Z,12.39
2023-04-18T11:14:54.612Z,12.39
2023-04-18T11:15:56.105Z,12.36
2023-04-18T11:16:57.841Z,12.38
2023-04-18T11:18:05.226Z,12.44
2023-04-18T11:19:21.115Z,12.40
2023-04-18T11:20:23.111Z,12.49
2023-04-18T11:21:30.425Z,12.48
2023-04-18T11:22:48.814Z,12.50
2023-04-18T11:23:50.557Z,12.49
2023-04-18T11:24:52.915Z,12.48
2023-04-18T11:25:56.394Z,12.54
2023-04-18T11:26:58.349Z,12.50
2023-04-18T11:28:03.519Z,12.51
2023-04-18T11:29:06.461Z,12.42
2023-04-18T11:30:08.813Z,12.51
2023-04-18T11:31:16.219Z,12.49
2023-04-18T11:32:17.849Z,12.45
2023-04-18T11:33:19.545Z,12.38
2023-04-18T11:34:21.279Z,12.34
2023-04-18T11:35:25.301Z,12.50
2023-04-18T11:36:26.888Z,12.36
2023-04-18T11:37:31.006Z,12.56
2023-04-18T11:38:33.376Z,12.65
2023-04-18T11:39:40.802Z,12.62
2023-04-18T11:40:49.142Z,12.57
2023-04-18T11:41:53.082Z,12.62
2023-04-18T11:42:55.373Z,12.67
2023-04-18T11:43:56.946Z,12.66
2023-04-18T11:44:58.587Z,12.65
2023-04-18T11:46:02.334Z,12.58
2023-04-18T11:47:09.265Z,12.64
2023-04-18T11:48:11.374Z,12.75
2023-04-18T11:49:26.021Z,12.65
2023-04-18T11:50:27.841Z,12.74
2023-04-18T11:51:39.017Z,12.79
2023-04-18T11:52:42.443Z,12.66
2023-04-18T11:53:47.226Z,12.78
2023-04-18T11:54:48.787Z,12.81
2023-04-18T11:55:55.730Z,12.83
2023-04-18T11:56:57.788Z,12.83
2023-04-18T11:58:02.352Z,12.81
2023-04-18T11:59:10.164Z,12.72
2023-04-18T12:00:12.704Z,12.78
2023-04-18T12:01:19.281Z,12.69
2023-04-18T12:02:22.788Z,12.81
2023-04-18T12:03:29.143Z,12.86
2023-04-18T12:04:49.347Z,12.91
2023-04-18T12:06:00.729Z,12.76
2023-04-18T12:07:02.566Z,12.87
2023-04-18T12:08:27.264Z,12.84
2023-04-18T12:09:29.051Z,12.88
2023-04-18T12:10:30.702Z,12.83
2023-04-18T12:11:32.324Z,12.88
2023-04-18T12:12:34.175Z,12.97
2023-04-18T12:13:35.931Z,13.02
2023-04-18T12:14:39.799Z,12.93
2023-04-18T12:15:44.653Z,13.13
2023-04-18T12:16:46.431Z,13.15
2023-04-18T12:17:54.467Z,13.12
2023-04-18T12:19:02.306Z,13.15
2023-04-18T12:20:05.751Z,13.17
2023-04-18T12:21:07.552Z,13.25
2023-04-18T12:22:11.459Z,13.36
2023-04-18T12:23:32.313Z,13.35
2023-04-18T12:24:34.614Z,13.32
2023-04-18T12:25:36.441Z,13.37
2023-04-18T12:26:45.588Z,13.25
2023-04-18T12:27:51.991Z,13.33
2023-04-18T12:28:58.321Z,13.43
2023-04-18T12:30:02.203Z,13.27
2023-04-18T12:31:07.379Z,13.34
2023-04-18T12:32:09.252Z,13.30
2023-04-18T12:33:11.288Z,13.39
2023-04-18T12:34:13.746Z,13.40
2023-04-18T12:35:16.588Z,13.40
2023-04-18T12:36:18.196Z,13.42
2023-04-18T12:37:25.516Z,13.51
2023-04-18T12:38:27.576Z,13.57
2023-04-18T12:39:29.186Z,13.55
2023-04-18T12:40:30.866Z,13.36
2023-04-18T12:41:32.501Z,13.49
2023-04-18T12:42:34.162Z,13.55
2023-04-18T12:43:35.722Z,13.47
2023-04-18T12:44:37.362Z,13.51
2023-04-18T12:45:38.892Z,13.50
2023-04-18T12:46:40.632Z,13.58
2023-04-18T12:47:44.651Z,13.54
2023-04-18T12:48:46.504Z,13.56
2023-04-18T12:49:50.453Z,13.58
2023-04-18T12:50:53.907Z,13.55
2023-04-18T12:51:57.886Z,13.68
2023-04-18T12:53:01.033Z,13.66
2023-04-18T12:54:02.713Z,13.62
2023-04-18T12:55:05.869Z,13.66
2023-04-18T12:56:07.885Z,13.65
2023-04-18T12:57:09.662Z,13.67
2023-04-18T12:58:11.265Z,13.69
2023-04-18T12:59:13.161Z,13.72
2023-04-18T13:00:15.181Z,13.70
2023-04-18T13:01:19.835Z,13.62
2023-04-18T13:02:24.058Z,13.79
2023-04-18T13:03:26.435Z,13.73
2023-04-18T13:04:28.245Z,13.71
2023-04-18T13:05:32.885Z,13.84
2023-04-18T13:06:37.420Z,13.91
2023-04-18T13:07:43.018Z,13.87
2023-04-18T13:08:45.188Z,13.87
2023-04-18T13:09:46.857Z,13.93
2023-04-18T13:10:48.527Z,13.84
2023-04-18T13:11:50.111Z,13.81
2023-04-18T13:12:52.549Z,13.94
2023-04-18T13:13:55.130Z,13.94
2023-04-18T13:14:57.570Z,14.02
2023-04-18T13:15:59.330Z,14.07
2023-04-18T13:17:00.992Z,13.83
2023-04-18T13:18:05.190Z,14.02
2023-04-18T13:19:06.888Z,14.16
2023-04-18T13:20:12.344Z,14.15
2023-04-18T13:21:13.984Z,14.14
2023-04-18T13:22:15.680Z,14.07
2023-04-18T13:23:19.589Z,14.21
2023-04-18T13:24:21.444Z,14.24
2023-04-18T13:25:23.263Z,14.22
2023-04-18T13:26:29.975Z,14.18
2023-04-18T13:27:34.203Z,14.13
2023-04-18T13:28:35.879Z,14.14
2023-04-18T13:29:42.696Z,14.25
2023-04-18T13:30:44.299Z,14.11
2023-04-18T13:31:45.963Z,14.20
2023-04-18T13:32:47.652Z,14.21
2023-04-18T13:33:49.330Z,14.23
2023-04-18T13:34:51.181Z,14.18
2023-04-18T13:35:52.821Z,14.12
2023-04-18T13:36:54.332Z,14.29
2023-04-18T13:37:56.637Z,14.43
2023-04-18T13:38:58.148Z,14.36
2023-04-18T13:40:05.553Z,14.47
2023-04-18T13:41:12.731Z,14.60
2023-04-18T13:42:18.544Z,14.52
2023-04-18T13:43:20.202Z,14.77
2023-04-18T13:44:25.154Z,14.75
2023-04-18T13:45:26.765Z,14.77
2023-04-18T13:46:28.471Z,14.95
2023-04-18T13:47:32.559Z,14.94
2023-04-18T13:48:34.171Z,14.80
2023-04-18T13:49:36.459Z,15.04
2023-04-18T13:50:45.398Z,15.02
2023-04-18T13:51:50.508Z,15.16
2023-04-18T13:52:54.536Z,15.29
2023-04-18T13:54:02.536Z,15.26
2023-04-18T13:55:04.415Z,15.41
2023-04-18T13:56:06.728Z,15.47
2023-04-18T13:57:14.723Z,15.44
2023-04-18T13:58:16.703Z,15.51
2023-04-18T13:59:18.420Z,15.62
2023-04-18T14:00:20.383Z,15.68
2023-04-18T14:01:22.299Z,15.72
2023-04-18T14:02:24.087Z,15.86
2023-04-18T14:03:26.416Z,15.70